createdAt,value
2023-03-28T00:02:41.295Z,0.88
2023-03-28T00:05:45.640Z,0.87
2023-03-28T00:08:49.981Z,0.90
2023-03-28T00:11:53.424Z,0.95
2023-03-28T00:14:57.657Z,0.89
2023-03-28T00:18:01.140Z,0.88
2023-03-28T00:21:08.058Z,0.82
2023-03-28T00:24:13.851Z,0.80
2023-03-28T00:27:17.874Z,0.83
2023-03-28T00:30:21.900Z,0.82
2023-03-28T00:33:24.837Z,0.83
2023-03-28T00:36:29.395Z,0.87
2023-03-28T00:39:32.507Z,0.83
2023-03-28T00:42:35.593Z,0.76
2023-03-28T00:45:38.283Z,0.81
2023-03-28T00:48:49.038Z,0.71
2023-03-28T00:52:04.688Z,0.80
2023-03-28T00:55:12.530Z,0.76
2023-03-28T00:58:20.053Z,0.72
2023-03-28T01:01:23.632Z,0.78
2023-03-28T01:04:36.353Z,0.66
2023-03-28T01:07:46.805Z,0.73
2023-03-28T01:10:51.416Z,0.81
2023-03-28T01:13:56.039Z,0.84
2023-03-28T01:17:01.725Z,0.92
2023-03-28T01:20:30.340Z,0.83
2023-03-28T01:23:48.094Z,0.85
2023-03-28T01:26:56.938Z,0.77
2023-03-28T01:30:45.284Z,0.59
2023-03-28T01:34:01.246Z,0.66
2023-03-28T01:37:06.533Z,0.59
2023-03-28T01:40:34.613Z,0.51
2023-03-28T01:44:18.871Z,0.43
2023-03-28T01:47:32.390Z,0.48
2023-03-28T01:50:56.608Z,0.39
2023-03-28T01:54:20.726Z,0.27
2023-03-28T01:57:46.390Z,0.28
2023-03-28T02:00:59.251Z,0.21
2023-03-28T02:04:20.754Z,0.10
2023-03-28T02:07:25.784Z,0.08
2023-03-28T02:10:32.977Z,0.08
2023-03-28T02:13:45.055Z,0.10
2023-03-28T02:16:52.320Z,-0.15
2023-03-28T02:20:00.847Z,0.04
2023-03-28T02:23:13.949Z,0.04
2023-03-28T02:26:20.247Z,0.01
2023-03-28T02:29:23.982Z,0.05
2023-03-28T02:32:27.000Z,0.04
2023-03-28T02:35:47.292Z,0.03
2023-03-28T02:39:18.119Z,-0.04
2023-03-28T02:42:45.758Z,0.06
2023-03-28T02:46:11.387Z,0.01
2023-03-28T02:49:29.960Z,-0.07
2023-03-28T02:52:42.620Z,0.04
2023-03-28T02:55:57.032Z,0.06
2023-03-28T02:59:43.751Z,0.04
2023-03-28T03:02:49.457Z,0.11
2023-03-28T03:05:52.565Z,0.04
2023-03-28T03:08:55.311Z,0.00
2023-03-28T03:11:58.564Z,-0.04
2023-03-28T03:15:01.831Z,-0.10
2023-03-28T03:18:13.884Z,-0.09
2023-03-28T03:21:18.006Z,-0.03
2023-03-28T03:24:21.487Z,-0.05
2023-03-28T03:27:24.204Z,-0.04
2023-03-28T03:30:29.024Z,-0.13
2023-03-28T03:33:33.880Z,-0.04
2023-03-28T03:36:38.082Z,-0.10
2023-03-28T03:39:42.217Z,0.00
2023-03-28T03:42:45.460Z,0.01
2023-03-28T03:45:48.248Z,0.08
2023-03-28T03:48:51.602Z,0.08
2023-03-28T03:51:54.324Z,0.13
2023-03-28T03:54:57.807Z,0.20
2023-03-28T03:58:01.193Z,0.18
2023-03-28T04:01:06.214Z,0.31
2023-03-28T04:04:10.573Z,0.43
2023-03-28T04:07:15.454Z,0.37
2023-03-28T04:10:18.804Z,0.30
2023-03-28T04:13:21.766Z,0.61
2023-03-28T04:16:26.285Z,0.55
2023-03-28T04:19:29.701Z,0.65
2023-03-28T04:22:35.880Z,0.60
2023-03-28T04:25:49.672Z,0.43
2023-03-28T04:28:53.713Z,0.43
2023-03-28T04:31:58.909Z,0.37
2023-03-28T04:35:07.899Z,0.32
2023-03-28T04:38:20.670Z,0.28
2023-03-28T04:41:29.239Z,0.21
2023-03-28T04:44:34.830Z,0.33
2023-03-28T04:47:39.984Z,0.32
2023-03-28T04:50:43.480Z,0.35
2023-03-28T04:53:48.445Z,0.33
2023-03-28T04:56:52.416Z,0.22
2023-03-28T04:59:56.725Z,0.26
2023-03-28T05:03:00.650Z,0.34
2023-03-28T05:06:05.488Z,0.42
2023-03-28T05:09:08.203Z,0.42
2023-03-28T05:12:11.289Z,0.40
2023-03-28T05:15:21.565Z,0.42
2023-03-28T05:18:26.881Z,0.54
2023-03-28T05:21:29.651Z,0.52
2023-03-28T05:24:33.344Z,0.68
2023-03-28T05:27:38.731Z,1.06
2023-03-28T05:30:42.192Z,2.66
2023-03-28T05:33:44.876Z,4.53
2023-03-28T05:36:57.203Z,3.64
2023-03-28T05:40:00.085Z,4.49
2023-03-28T05:43:03.211Z,6.00
2023-03-28T05:46:06.508Z,6.58
2023-03-28T05:49:09.610Z,7.64
2023-03-28T05:52:12.339Z,7.90
2023-03-28T05:55:15.902Z,8.71
2023-03-28T05:58:20.264Z,9.59
2023-03-28T06:01:28.870Z,10.45
2023-03-28T06:04:33.383Z,9.99
2023-03-28T06:07:42.567Z,10.29
2023-03-28T06:10:48.628Z,9.40
2023-03-28T06:13:51.724Z,10.12
2023-03-28T06:16:54.736Z,10.93
2023-03-28T06:19:57.701Z,10.79
2023-03-28T06:23:03.619Z,11.22
2023-03-28T06:26:07.208Z,11.00
2023-03-28T06:29:12.191Z,10.97
2023-03-28T06:32:15.613Z,11.48
2023-03-28T06:35:18.591Z,11.19
2023-03-28T06:38:21.533Z,11.33
2023-03-28T06:41:26.083Z,11.14
2023-03-28T06:44:30.249Z,11.82
2023-03-28T06:47:36.002Z,11.99
2023-03-28T06:50:40.109Z,11.43
2023-03-28T06:53:43.452Z,11.20
2023-03-28T06:56:47.136Z,11.63
2023-03-28T06:59:51.674Z,11.45
2023-03-28T07:02:54.910Z,12.20
2023-03-28T07:05:58.772Z,11.01
2023-03-28T07:09:03.421Z,10.69
2023-03-28T07:12:08.600Z,11.50
2023-03-28T07:15:11.684Z,11.15
2023-03-28T07:18:14.767Z,11.71
2023-03-28T07:21:18.871Z,12.04
2023-03-28T07:24:22.027Z,12.03
2023-03-28T07:27:25.946Z,11.61
2023-03-28T07:30:29.215Z,11.48
2023-03-28T07:33:37.376Z,11.41
2023-03-28T07:36:42.063Z,12.90
2023-03-28T07:39:45.833Z,13.33
2023-03-28T07:42:49.951Z,13.13
2023-03-28T07:45:54.221Z,13.00
2023-03-28T07:48:57.339Z,13.12
2023-03-28T07:52:00.988Z,13.60
2023-03-28T07:55:04.551Z,13.59
2023-03-28T07:58:10.256Z,13.45
2023-03-28T08:01:14.505Z,14.08
2023-03-28T08:04:17.767Z,14.63
2023-03-28T08:07:21.709Z,14.70
2023-03-28T08:10:25.546Z,15.13
2023-03-28T08:13:28.492Z,13.60
2023-03-28T08:16:33.786Z,11.38
2023-03-28T08:19:37.444Z,12.42
2023-03-28T08:22:45.326Z,9.07
2023-03-28T08:25:49.044Z,7.32
2023-03-28T08:28:58.409Z,6.64
2023-03-28T08:32:01.513Z,6.25
2023-03-28T08:35:06.451Z,6.02
2023-03-28T08:38:11.206Z,5.52
2023-03-28T08:41:29.309Z,6.92
2023-03-28T08:45:02.767Z,6.08
2023-03-28T08:48:18.458Z,7.71
2023-03-28T08:51:24.594Z,6.82
2023-03-28T08:54:58.318Z,7.09
2023-03-28T08:58:02.176Z,7.19
2023-03-28T09:01:05.633Z,7.22
2023-03-28T09:04:20.447Z,6.71
2023-03-28T09:08:13.295Z,5.63
2023-03-28T09:11:40.562Z,6.21
2023-03-28T09:15:07.673Z,6.26
2023-03-28T09:18:40.652Z,6.03
2023-03-28T09:22:15.225Z,5.76
2023-03-28T09:25:48.409Z,5.03
2023-03-28T09:28:59.985Z,4.20
2023-03-28T09:32:28.679Z,3.65
2023-03-28T09:35:32.548Z,4.18
2023-03-28T09:38:43.431Z,5.50
2023-03-28T09:41:59.750Z,6.32
2023-03-28T09:45:41.024Z,5.99
2023-03-28T09:48:57.992Z,6.29
2023-03-28T09:52:02.929Z,6.68
2023-03-28T09:55:14.463Z,6.94
2023-03-28T09:58:18.577Z,6.51
2023-03-28T10:01:45.538Z,6.45
2023-03-28T10:04:52.116Z,6.82
2023-03-28T10:07:58.657Z,7.01
2023-03-28T10:11:22.850Z,6.87
2023-03-28T10:14:30.060Z,5.35
2023-03-28T10:17:37.272Z,5.02
2023-03-28T10:20:41.561Z,5.95
2023-03-28T10:23:53.155Z,7.04
2023-03-28T10:27:24.035Z,7.55
2023-03-28T10:30:33.497Z,6.44
2023-03-28T10:33:42.979Z,3.24
2023-03-28T10:36:47.957Z,2.23
2023-03-28T10:40:23.497Z,2.25
2023-03-28T10:43:39.012Z,2.49
2023-03-28T10:46:42.975Z,3.43
2023-03-28T10:49:51.040Z,4.51
2023-03-28T10:53:20.755Z,4.61
2023-03-28T10:56:38.614Z,4.39
2023-03-28T10:59:59.766Z,4.62
2023-03-28T11:03:15.540Z,4.80
2023-03-28T11:06:34.653Z,5.29
2023-03-28T11:10:04.312Z,5.67
2023-03-28T11:13:54.372Z,5.99
2023-03-28T11:17:12.606Z,6.77
2023-03-28T11:20:33.324Z,6.44
2023-03-28T11:23:46.290Z,2.06
2023-03-28T11:27:12.684Z,0.90
2023-03-28T11:30:33.613Z,0.55
2023-03-28T11:33:48.149Z,0.44
2023-03-28T11:37:02.188Z,0.63
2023-03-28T11:40:21.327Z,0.77
2023-03-28T11:43:35.363Z,1.09
2023-03-28T11:46:48.069Z,1.46
2023-03-28T11:49:59.481Z,1.77
2023-03-28T11:53:28.529Z,2.01
2023-03-28T11:56:43.751Z,2.38
2023-03-28T12:00:05.564Z,2.90
2023-03-28T12:03:29.031Z,3.27
2023-03-28T12:07:02.387Z,3.54
2023-03-28T12:10:20.592Z,3.70
2023-03-28T12:14:11.559Z,4.05
2023-03-28T12:17:30.331Z,4.11
2023-03-28T12:20:46.442Z,4.34
2023-03-28T12:24:13.703Z,4.99
2023-03-28T12:27:23.675Z,4.70
2023-03-28T12:30:35.761Z,5.06
2023-03-28T12:34:00.553Z,5.06
2023-03-28T12:37:22.388Z,5.12
2023-03-28T12:40:41.824Z,5.03
2023-03-28T12:43:54.436Z,5.13
2023-03-28T12:47:29.305Z,5.37
2023-03-28T12:50:42.853Z,5.70
2023-03-28T12:54:01.321Z,5.69
2023-03-28T12:57:14.137Z,5.84
2023-03-28T13:00:39.920Z,5.65
2023-03-28T13:04:25.711Z,5.80
2023-03-28T13:07:57.946Z,5.72
2023-03-28T13:11:19.139Z,5.77
2023-03-28T13:14:30.767Z,6.04
2023-03-28T13:17:37.873Z,6.59
2023-03-28T13:20:46.082Z,6.84
2023-03-28T13:23:50.025Z,6.58
2023-03-28T13:26:58.172Z,6.30
2023-03-28T13:30:05.335Z,6.33
2023-03-28T13:33:27.699Z,6.83
2023-03-28T13:36:33.063Z,6.70
2023-03-28T13:39:36.202Z,6.55
2023-03-28T13:42:58.666Z,5.84
2023-03-28T13:46:11.514Z,5.36
2023-03-28T13:49:29.321Z,5.26
2023-03-28T13:52:32.731Z,5.29
2023-03-28T13:55:36.026Z,5.61
2023-03-28T13:58:39.048Z,6.00
2023-03-28T14:01:44.604Z,5.75
2023-03-28T14:04:52.970Z,5.41
2023-03-28T14:08:18.815Z,4.37
2023-03-28T14:11:26.328Z,4.38
2023-03-28T14:14:34.076Z,4.82
2023-03-28T14:17:39.366Z,5.20
2023-03-28T14:20:43.885Z,5.61
2023-03-28T14:23:59.020Z,5.67
2023-03-28T14:27:13.388Z,5.09
2023-03-28T14:30:30.868Z,5.30
2023-03-28T14:33:37.282Z,5.48
2023-03-28T14:37:06.478Z,5.46
2023-03-28T14:40:24.398Z,5.55
2023-03-28T14:43:29.837Z,5.86
2023-03-28T14:46:33.516Z,6.11
2023-03-28T14:49:37.620Z,6.11
2023-03-28T14:52:44.772Z,5.98
2023-03-28T14:55:49.919Z,5.48
2023-03-28T14:58:57.588Z,4.14
2023-03-28T15:02:04.420Z,3.42
2023-03-28T15:05:27.944Z,3.33
2023-03-28T15:08:51.001Z,3.34
2023-03-28T15:12:15.276Z,3.49
2023-03-28T15:15:48.607Z,3.63
2023-03-28T15:19:21.121Z,3.60
2023-03-28T15:22:28.233Z,3.74
2023-03-28T15:25:32.008Z,3.79
2023-03-28T15:28:35.703Z,3.75
2023-03-28T15:31:40.283Z,3.70
2023-03-28T15:34:55.789Z,3.65
2023-03-28T15:38:22.953Z,3.17
2023-03-28T15:41:46.096Z,2.46
2023-03-28T15:44:57.795Z,2.19
2023-03-28T15:48:00.849Z,2.05
2023-03-28T15:51:06.678Z,2.07
2023-03-28T15:54:23.819Z,2.11
2023-03-28T15:57:29.470Z,2.26
2023-03-28T16:00:47.697Z,2.54
2023-03-28T16:03:52.533Z,2.85
2023-03-28T16:07:10.137Z,3.08
2023-03-28T16:10:16.235Z,3.21
2023-03-28T16:13:21.045Z,3.24
2023-03-28T16:16:29.526Z,3.23
2023-03-28T16:19:34.991Z,3.25
2023-03-28T16:22:38.335Z,3.12
2023-03-28T16:25:42.632Z,3.15
2023-03-28T16:28:45.891Z,3.12
2023-03-28T16:31:49.138Z,3.04
2023-03-28T16:34:52.428Z,3.06
2023-03-28T16:37:55.733Z,3.07
2023-03-28T16:40:59.008Z,3.10
2023-03-28T16:44:01.848Z,3.03
2023-03-28T16:47:05.720Z,2.98
2023-03-28T16:50:09.626Z,2.99
2023-03-28T16:53:12.730Z,2.90
2023-03-28T16:56:18.496Z,2.80
2023-03-28T16:59:22.049Z,2.67
2023-03-28T17:02:24.988Z,2.72
2023-03-28T17:05:28.228Z,2.63
2023-03-28T17:08:31.249Z,2.55
2023-03-28T17:11:34.835Z,2.55
2023-03-28T17:14:37.653Z,2.46
2023-03-28T17:17:40.728Z,2.37
2023-03-28T17:20:43.375Z,2.32
2023-03-28T17:23:49.130Z,2.41
2023-03-28T17:26:51.789Z,2.40
2023-03-28T17:29:54.787Z,2.34
2023-03-28T17:32:57.602Z,2.33
2023-03-28T17:36:01.284Z,2.26
2023-03-28T17:39:04.521Z,2.13
2023-03-28T17:42:07.549Z,1.99
2023-03-28T17:45:10.784Z,1.92
2023-03-28T17:48:13.762Z,1.82
2023-03-28T17:51:16.738Z,1.71
2023-03-28T17:54:19.760Z,1.74
2023-03-28T17:57:22.550Z,1.69
2023-03-28T18:00:25.793Z,1.68
2023-03-28T18:03:28.904Z,1.71
2023-03-28T18:06:33.344Z,1.69
2023-03-28T18:09:36.607Z,1.71
2023-03-28T18:12:39.389Z,1.70
2023-03-28T18:15:42.381Z,1.63
2023-03-28T18:18:45.168Z,1.68
2023-03-28T18:21:48.205Z,1.66
2023-03-28T18:24:51.180Z,1.47
2023-03-28T18:27:54.174Z,1.55
2023-03-28T18:31:09.227Z,1.51
2023-03-28T18:34:12.206Z,1.49
2023-03-28T18:37:14.959Z,1.51
2023-03-28T18:40:18.493Z,1.55
2023-03-28T18:43:21.572Z,1.53
2023-03-28T18:46:29.881Z,1.51
2023-03-28T18:49:32.938Z,1.42
2023-03-28T18:52:36.095Z,1.35
2023-03-28T18:55:41.576Z,1.17
2023-03-28T18:58:46.112Z,1.17
2023-03-28T19:01:51.751Z,1.06
2023-03-28T19:04:55.020Z,0.88
2023-03-28T19:07:59.214Z,0.72
2023-03-28T19:11:09.015Z,0.61
2023-03-28T19:14:11.975Z,0.44
2023-03-28T19:17:15.708Z,0.37
2023-03-28T19:20:19.765Z,0.25
2023-03-28T19:23:24.447Z,0.14
2023-03-28T19:26:27.299Z,0.08
2023-03-28T19:29:32.060Z,0.08
2023-03-28T19:32:34.850Z,0.07
2023-03-28T19:35:39.435Z,0.02
2023-03-28T19:38:42.423Z,0.12
2023-03-28T19:41:45.417Z,0.18
2023-03-28T19:44:48.358Z,0.13
2023-03-28T19:47:51.906Z,0.21
2023-03-28T19:50:54.769Z,0.14
2023-03-28T19:53:59.931Z,0.04
2023-03-28T19:57:02.934Z,-0.04
2023-03-28T20:00:08.508Z,-0.24
2023-03-28T20:03:16.014Z,-0.39
2023-03-28T20:06:21.278Z,-0.60
2023-03-28T20:09:24.338Z,-0.82
2023-03-28T20:12:27.290Z,-0.99
2023-03-28T20:15:30.149Z,-1.08
2023-03-28T20:18:33.764Z,-1.11
2023-03-28T20:21:36.511Z,-1.24
2023-03-28T20:24:39.464Z,-1.25
2023-03-28T20:27:42.099Z,-1.13
2023-03-28T20:30:45.972Z,-1.13
2023-03-28T20:33:49.051Z,-1.11
2023-03-28T20:36:52.059Z,-1.06
2023-03-28T20:39:55.245Z,-1.16
2023-03-28T20:43:01.853Z,-1.22
2023-03-28T20:46:04.870Z,-1.40
2023-03-28T20:49:07.954Z,-1.37
2023-03-28T20:52:10.949Z,-1.44
2023-03-28T20:55:15.024Z,-1.43
2023-03-28T20:58:17.764Z,-1.41
2023-03-28T21:01:25.370Z,-1.45
2023-03-28T21:04:28.573Z,-1.50
2023-03-28T21:07:31.925Z,-1.54
2023-03-28T21:10:36.513Z,-1.60
2023-03-28T21:13:39.730Z,-1.65
2023-03-28T21:16:42.472Z,-1.79
2023-03-28T21:19:46.690Z,-1.76
2023-03-28T21:22:49.482Z,-1.79
2023-03-28T21:25:53.396Z,-1.85
2023-03-28T21:28:56.483Z,-1.94
2023-03-28T21:31:59.554Z,-1.88
2023-03-28T21:35:04.189Z,-1.79
2023-03-28T21:38:07.539Z,-1.60
2023-03-28T21:41:11.458Z,-1.41
2023-03-28T21:44:15.588Z,-1.32
2023-03-28T21:47:18.280Z,-1.27
2023-03-28T21:50:21.244Z,-1.21
2023-03-28T21:53:23.953Z,-1.18
2023-03-28T21:56:27.220Z,-1.11
2023-03-28T21:59:29.916Z,-1.11
2023-03-28T22:02:33.297Z,-1.05
2023-03-28T22:05:42.819Z,-0.98
2023-03-28T22:08:48.897Z,-1.06
2023-03-28T22:11:52.695Z,-0.91
2023-03-28T22:14:55.280Z,-0.87
2023-03-28T22:17:58.456Z,-0.85
2023-03-28T22:21:02.626Z,-0.83
2023-03-28T22:24:12.829Z,-0.77
2023-03-28T22:27:15.541Z,-0.77
2023-03-28T22:30:19.014Z,-0.75
2023-03-28T22:33:23.656Z,-0.81
2023-03-28T22:36:27.131Z,-0.83
2023-03-28T22:39:29.826Z,-0.86
2023-03-28T22:42:32.978Z,-0.85
2023-03-28T22:45:35.786Z,-0.71
2023-03-28T22:48:39.392Z,-0.65
2023-03-28T22:51:48.997Z,-0.76
2023-03-28T22:54:53.035Z,-0.84
2023-03-28T22:57:55.827Z,-0.84
2023-03-28T23:00:58.903Z,-0.93
2023-03-28T23:04:01.726Z,-0.89
2023-03-28T23:07:04.635Z,-0.91
2023-03-28T23:10:12.104Z,-1.05
2023-03-28T23:13:15.419Z,-1.06
2023-03-28T23:16:18.343Z,-1.35
2023-03-28T23:19:22.486Z,-1.64
2023-03-28T23:22:25.152Z,-1.74
2023-03-28T23:25:28.621Z,-1.86
2023-03-28T23:28:31.222Z,-1.87
2023-03-28T23:31:34.221Z,-1.88
2023-03-28T23:34:37.514Z,-1.79
2023-03-28T23:37:40.632Z,-1.81
2023-03-28T23:40:46.806Z,-1.56
2023-03-28T23:43:49.858Z,-1.50
2023-03-28T23:46:53.105Z,-1.37
2023-03-28T23:49:56.189Z,-1.33
2023-03-28T23:52:58.942Z,-1.21
2023-03-28T23:56:03.537Z,-1.18
2023-03-28T23:59:06.758Z,-1.17
